sensor_id;sensor_type;location;lat;lon;timestamp;pressure;altitude;pressure_sealevel;temperature;humidity
35806;BME280;21925;44.608;11.580;2022-12-10T00:01:52;100124.81;;;10.32;96.91
35806;BME280;21925;44.608;11.580;2022-12-10T00:04:19;100217.13;;;10.47;98.37
35806;BME280;21925;44.608;11.580;2022-12-10T00:06:46;100136.66;;;9.87;100.00
35806;BME280;21925;44.608;11.580;2022-12-10T00:09:17;100209.50;;;10.56;99.05
35806;BME280;21925;44.608;11.580;2022-12-10T00:11:43;100180.34;;;10.14;99.92
35806;BME280;21925;44.608;11.580;2022-12-10T00:14:11;100169.66;;;10.25;100.00
35806;BME280;21925;44.608;11.580;2022-12-10T00:16:37;100143.19;;;9.82;100.00
35806;BME280;21925;44.608;11.580;2022-12-10T00:19:04;100129.03;;;9.96;100.00
35806;BME280;21925;44.608;11.580;2022-12-10T00:21:32;100138.41;;;10.48;99.24
35806;BME280;21925;44.608;11.580;2022-12-10T00:24:00;100084.13;;;10.16;97.35
35806;BME280;21925;44.608;11.580;2022-12-10T00:26:31;100180.91;;;10.76;96.93
35806;BME280;21925;44.608;11.580;2022-12-10T00:29:03;100090.63;;;9.92;98.41
35806;BME280;21925;44.608;11.580;2022-12-10T00:34:17;100127.97;;;10.16;97.23
35806;BME280;21925;44.608;11.580;2022-12-10T00:36:45;100155.72;;;10.33;97.68
35806;BME280;21925;44.608;11.580;2022-12-10T00:39:15;100219.56;;;10.52;98.21
35806;BME280;21925;44.608;11.580;2022-12-10T00:41:41;100112.16;;;9.94;97.85
35806;BME280;21925;44.608;11.580;2022-12-10T00:44:07;100219.03;;;10.28;98.74
35806;BME280;21925;44.608;11.580;2022-12-10T00:46:33;100103.00;;;9.21;100.00
35806;BME280;21925;44.608;11.580;2022-12-10T00:49:00;100106.88;;;9.05;100.00
35806;BME280;21925;44.608;11.580;2022-12-10T00:51:27;100202.72;;;9.70;100.00
35806;BME280;21925;44.608;11.580;2022-12-10T00:53:55;100129.38;;;9.29;100.00
35806;BME280;21925;44.608;11.580;2022-12-10T00:56:25;100082.09;;;8.82;100.00
35806;BME280;21925;44.608;11.580;2022-12-10T00:58:51;100090.38;;;8.86;100.00
35806;BME280;21925;44.608;11.580;2022-12-10T01:01:28;100200.28;;;9.65;100.00
35806;BME280;21925;44.608;11.580;2022-12-10T01:03:57;100097.91;;;9.20;100.00
35806;BME280;21925;44.608;11.580;2022-12-10T01:06:26;100151.69;;;9.77;100.00
35806;BME280;21925;44.608;11.580;2022-12-10T01:08:55;100136.94;;;9.82;100.00
35806;BME280;21925;44.608;11.580;2022-12-10T01:11:25;100131.03;;;9.80;100.00
35806;BME280;21925;44.608;11.580;2022-12-10T01:13:51;100197.34;;;9.89;100.00
35806;BME280;21925;44.608;11.580;2022-12-10T01:16:19;100173.06;;;9.72;100.00
35806;BME280;21925;44.608;11.580;2022-12-10T01:18:46;100041.88;;;8.98;100.00
35806;BME280;21925;44.608;11.580;2022-12-10T01:21:15;100165.72;;;10.07;100.00
35806;BME280;21925;44.608;11.580;2022-12-10T01:23:43;100127.06;;;10.12;100.00
35806;BME280;21925;44.608;11.580;2022-12-10T01:26:12;100097.19;;;9.88;99.29
35806;BME280;21925;44.608;11.580;2022-12-10T01:28:39;100047.53;;;9.55;98.97
35806;BME280;21925;44.608;11.580;2022-12-10T01:31:17;100189.78;;;10.51;98.64
35806;BME280;21925;44.608;11.580;2022-12-10T01:33:43;100123.44;;;10.42;96.65
35806;BME280;21925;44.608;11.580;2022-12-10T01:36:17;100145.63;;;10.56;95.22
35806;BME280;21925;44.608;11.580;2022-12-10T01:38:43;100191.56;;;11.00;93.24
35806;BME280;21925;44.608;11.580;2022-12-10T01:41:21;100193.31;;;11.30;91.97
35806;BME280;21925;44.608;11.580;2022-12-10T01:44:00;100195.56;;;10.65;94.08
35806;BME280;21925;44.608;11.580;2022-12-10T01:46:35;100027.25;;;9.56;96.27
35806;BME280;21925;44.608;11.580;2022-12-10T01:49:04;100169.31;;;10.45;97.24
35806;BME280;21925;44.608;11.580;2022-12-10T01:51:33;100098.69;;;10.38;95.32
35806;BME280;21925;44.608;11.580;2022-12-10T01:54:05;100066.25;;;10.22;94.19
35806;BME280;21925;44.608;11.580;2022-12-10T01:56:36;100135.03;;;10.54;94.07
35806;BME280;21925;44.608;11.580;2022-12-10T01:59:04;100126.44;;;10.18;94.51
35806;BME280;21925;44.608;11.580;2022-12-10T02:09:45;100180.19;;;10.98;93.21
35806;BME280;21925;44.608;11.580;2022-12-10T02:12:22;100172.16;;;10.71;93.83
35806;BME280;21925;44.608;11.580;2022-12-10T02:14:55;100058.16;;;10.10;95.32
35806;BME280;21925;44.608;11.580;2022-12-10T02:22:37;100084.41;;;10.30;95.70
35806;BME280;21925;44.608;11.580;2022-12-10T02:25:06;100157.53;;;10.63;94.97
35806;BME280;21925;44.608;11.580;2022-12-10T02:30:22;100181.03;;;10.83;96.04
35806;BME280;21925;44.608;11.580;2022-12-10T02:32:49;100045.78;;;10.16;94.32
35806;BME280;21925;44.608;11.580;2022-12-10T02:35:23;100121.53;;;10.65;93.95
35806;BME280;21925;44.608;11.580;2022-12-10T02:37:55;100155.09;;;11.18;92.74
35806;BME280;21925;44.608;11.580;2022-12-10T02:40:26;100105.75;;;11.00;90.74
35806;BME280;21925;44.608;11.580;2022-12-10T02:42:54;100166.97;;;11.26;89.99
35806;BME280;21925;44.608;11.580;2022-12-10T02:45:23;100076.56;;;10.88;90.07
35806;BME280;21925;44.608;11.580;2022-12-10T02:47:54;100135.50;;;10.98;90.69
35806;BME280;21925;44.608;11.580;2022-12-10T02:50:23;100156.09;;;10.88;93.03
35806;BME280;21925;44.608;11.580;2022-12-10T02:52:49;100123.38;;;10.57;93.92
35806;BME280;21925;44.608;11.580;2022-12-10T02:55:16;100174.56;;;10.72;94.90
35806;BME280;21925;44.608;11.580;2022-12-10T03:00:19;100152.66;;;10.95;95.87
35806;BME280;21925;44.608;11.580;2022-12-10T03:11:09;100129.00;;;11.28;91.23
35806;BME280;21925;44.608;11.580;2022-12-10T03:13:47;100149.00;;;10.87;90.54
35806;BME280;21925;44.608;11.580;2022-12-10T03:16:16;100143.53;;;10.87;93.22
35806;BME280;21925;44.608;11.580;2022-12-10T03:18:43;100085.84;;;10.61;93.71
35806;BME280;21925;44.608;11.580;2022-12-10T03:21:12;100109.91;;;10.90;93.19
35806;BME280;21925;44.608;11.580;2022-12-10T03:23:42;100117.25;;;10.86;93.37
35806;BME280;21925;44.608;11.580;2022-12-10T03:26:09;100091.97;;;10.96;93.56
35806;BME280;21925;44.608;11.580;2022-12-10T03:28:42;100092.94;;;11.07;91.93
35806;BME280;21925;44.608;11.580;2022-12-10T03:31:12;100052.94;;;10.61;92.06
35806;BME280;21925;44.608;11.580;2022-12-10T03:33:40;100027.44;;;10.57;92.02
35806;BME280;21925;44.608;11.580;2022-12-10T03:36:07;100051.38;;;10.83;91.79
35806;BME280;21925;44.608;11.580;2022-12-10T03:38:34;100021.97;;;10.20;90.89
35806;BME280;21925;44.608;11.580;2022-12-10T03:41:01;100101.84;;;11.01;90.57
35806;BME280;21925;44.608;11.580;2022-12-10T03:43:27;100007.50;;;10.19;92.22
35806;BME280;21925;44.608;11.580;2022-12-10T03:45:53;99987.03;;;9.94;93.59
35806;BME280;21925;44.608;11.580;2022-12-10T03:48:19;100092.19;;;10.65;95.15
35806;BME280;21925;44.608;11.580;2022-12-10T03:50:44;99937.84;;;9.98;93.08
35806;BME280;21925;44.608;11.580;2022-12-10T03:53:10;99977.28;;;10.57;90.70
35806;BME280;21925;44.608;11.580;2022-12-10T03:55:37;100083.66;;;11.60;87.27
35806;BME280;21925;44.608;11.580;2022-12-10T03:58:06;100038.06;;;11.07;88.21
35806;BME280;21925;44.608;11.580;2022-12-10T04:00:32;100095.22;;;11.02;89.64
35806;BME280;21925;44.608;11.580;2022-12-10T04:02:57;100046.75;;;10.64;91.58
35806;BME280;21925;44.608;11.580;2022-12-10T04:05:23;99947.03;;;9.71;92.64
35806;BME280;21925;44.608;11.580;2022-12-10T04:07:49;100000.84;;;10.39;93.39
35806;BME280;21925;44.608;11.580;2022-12-10T04:10:15;99928.56;;;10.25;89.82
35806;BME280;21925;44.608;11.580;2022-12-10T04:12:41;100000.69;;;10.73;88.09
35806;BME280;21925;44.608;11.580;2022-12-10T04:15:07;100084.38;;;11.09;90.39
35806;BME280;21925;44.608;11.580;2022-12-10T04:17:52;100014.75;;;10.49;91.96
35806;BME280;21925;44.608;11.580;2022-12-10T04:20:18;100081.66;;;10.90;92.37
35806;BME280;21925;44.608;11.580;2022-12-10T04:23:02;100080.25;;;10.99;93.01
35806;BME280;21925;44.608;11.580;2022-12-10T04:25:46;100065.75;;;10.76;93.58
35806;BME280;21925;44.608;11.580;2022-12-10T04:28:31;100047.47;;;10.61;94.22
35806;BME280;21925;44.608;11.580;2022-12-10T04:30:57;100070.63;;;10.86;94.74
35806;BME280;21925;44.608;11.580;2022-12-10T04:33:23;100062.91;;;10.50;95.83
35806;BME280;21925;44.608;11.580;2022-12-10T04:35:49;100019.00;;;10.47;95.74
35806;BME280;21925;44.608;11.580;2022-12-10T04:38:17;100038.66;;;10.71;95.77
35806;BME280;21925;44.608;11.580;2022-12-10T04:40:44;100061.78;;;10.74;95.47
35806;BME280;21925;44.608;11.580;2022-12-10T04:43:10;100015.94;;;10.30;95.08
35806;BME280;21925;44.608;11.580;2022-12-10T04:45:35;100078.19;;;10.70;96.92
35806;BME280;21925;44.608;11.580;2022-12-10T04:48:01;100047.91;;;10.44;97.00
35806;BME280;21925;44.608;11.580;2022-12-10T04:50:27;100067.66;;;10.53;97.92
35806;BME280;21925;44.608;11.580;2022-12-10T04:52:53;100069.06;;;10.85;95.96
35806;BME280;21925;44.608;11.580;2022-12-10T04:55:19;100065.34;;;10.97;94.67
35806;BME280;21925;44.608;11.580;2022-12-10T04:57:45;100059.97;;;11.04;93.03
35806;BME280;21925;44.608;11.580;2022-12-10T05:00:11;100048.59;;;10.79;92.66
35806;BME280;21925;44.608;11.580;2022-12-10T05:02:37;100006.88;;;10.07;96.39
35806;BME280;21925;44.608;11.580;2022-12-10T05:05:03;100085.78;;;10.58;97.85
35806;BME280;21925;44.608;11.580;2022-12-10T05:07:29;100045.66;;;10.09;98.52
35806;BME280;21925;44.608;11.580;2022-12-10T05:09:55;100042.31;;;10.19;98.22
35806;BME280;21925;44.608;11.580;2022-12-10T05:12:20;100073.03;;;10.46;97.42
35806;BME280;21925;44.608;11.580;2022-12-10T05:14:46;100021.03;;;10.31;96.88
35806;BME280;21925;44.608;11.580;2022-12-10T05:17:12;99990.84;;;10.28;96.28
35806;BME280;21925;44.608;11.580;2022-12-10T05:19:38;99936.69;;;9.99;94.90
35806;BME280;21925;44.608;11.580;2022-12-10T05:22:04;100027.38;;;10.35;96.67
35806;BME280;21925;44.608;11.580;2022-12-10T05:24:49;99994.91;;;10.15;96.78
35806;BME280;21925;44.608;11.580;2022-12-10T05:27:15;99942.38;;;9.71;97.14
35806;BME280;21925;44.608;11.580;2022-12-10T05:29:43;99934.41;;;9.66;95.90
35806;BME280;21925;44.608;11.580;2022-12-10T05:32:09;99947.41;;;9.69;95.81
35806;BME280;21925;44.608;11.580;2022-12-10T05:34:35;99994.19;;;10.18;95.23
35806;BME280;21925;44.608;11.580;2022-12-10T05:37:01;99893.81;;;9.68;93.69
35806;BME280;21925;44.608;11.580;2022-12-10T05:39:27;100008.09;;;10.50;92.88
35806;BME280;21925;44.608;11.580;2022-12-10T05:41:53;100003.59;;;10.61;92.34
35806;BME280;21925;44.608;11.580;2022-12-10T05:44:19;100013.03;;;10.41;92.83
35806;BME280;21925;44.608;11.580;2022-12-10T05:46:51;99987.47;;;9.96;94.36
35806;BME280;21925;44.608;11.580;2022-12-10T05:49:17;100027.41;;;10.16;96.25
35806;BME280;21925;44.608;11.580;2022-12-10T05:51:43;99961.72;;;9.82;96.42
35806;BME280;21925;44.608;11.580;2022-12-10T05:54:09;99875.44;;;9.12;96.91
35806;BME280;21925;44.608;11.580;2022-12-10T05:56:36;99958.97;;;9.44;97.06
35806;BME280;21925;44.608;11.580;2022-12-10T05:59:03;100039.28;;;10.05;95.85
35806;BME280;21925;44.608;11.580;2022-12-10T06:01:32;100049.75;;;10.18;96.17
35806;BME280;21925;44.608;11.580;2022-12-10T06:03:59;99949.22;;;10.00;93.83
35806;BME280;21925;44.608;11.580;2022-12-10T06:06:28;99995.41;;;10.01;92.42
35806;BME280;21925;44.608;11.580;2022-12-10T06:08:56;99968.28;;;9.77;92.46
35806;BME280;21925;44.608;11.580;2022-12-10T06:11:22;100034.06;;;9.81;93.61
35806;BME280;21925;44.608;11.580;2022-12-10T06:13:48;100017.78;;;9.69;96.65
35806;BME280;21925;44.608;11.580;2022-12-10T06:16:14;100061.34;;;10.12;97.12
35806;BME280;21925;44.608;11.580;2022-12-10T06:18:40;99997.19;;;9.75;97.13
35806;BME280;21925;44.608;11.580;2022-12-10T06:21:12;99966.91;;;9.68;95.53
35806;BME280;21925;44.608;11.580;2022-12-10T06:23:42;100071.22;;;10.54;94.14
35806;BME280;21925;44.608;11.580;2022-12-10T06:26:17;99992.16;;;9.77;92.76
35806;BME280;21925;44.608;11.580;2022-12-10T06:28:45;99887.25;;;9.35;93.12
35806;BME280;21925;44.608;11.580;2022-12-10T06:31:11;99990.44;;;10.07;93.34
35806;BME280;21925;44.608;11.580;2022-12-10T06:33:39;99982.66;;;10.09;92.94
35806;BME280;21925;44.608;11.580;2022-12-10T06:36:07;99981.34;;;10.22;90.56
35806;BME280;21925;44.608;11.580;2022-12-10T06:38:34;100084.19;;;10.57;91.73
35806;BME280;21925;44.608;11.580;2022-12-10T06:41:04;99988.22;;;10.34;91.57
35806;BME280;21925;44.608;11.580;2022-12-10T06:43:30;99935.88;;;9.60;91.17
35806;BME280;21925;44.608;11.580;2022-12-10T06:45:56;100015.63;;;10.34;91.67
35806;BME280;21925;44.608;11.580;2022-12-10T06:48:22;99979.03;;;10.46;90.07
35806;BME280;21925;44.608;11.580;2022-12-10T06:50:48;100038.09;;;10.62;90.36
35806;BME280;21925;44.608;11.580;2022-12-10T06:53:14;100076.78;;;10.80;90.23
35806;BME280;21925;44.608;11.580;2022-12-10T06:55:41;100085.25;;;10.52;92.82
35806;BME280;21925;44.608;11.580;2022-12-10T06:58:06;99990.50;;;10.10;92.60
35806;BME280;21925;44.608;11.580;2022-12-10T07:00:33;99937.84;;;9.98;92.70
35806;BME280;21925;44.608;11.580;2022-12-10T07:02:59;99985.34;;;10.28;91.77
35806;BME280;21925;44.608;11.580;2022-12-10T07:05:25;100015.94;;;10.11;93.02
35806;BME280;21925;44.608;11.580;2022-12-10T07:07:54;100050.97;;;10.21;93.99
35806;BME280;21925;44.608;11.580;2022-12-10T07:10:19;100002.91;;;10.04;94.90
35806;BME280;21925;44.608;11.580;2022-12-10T07:12:46;100010.31;;;10.23;94.24
35806;BME280;21925;44.608;11.580;2022-12-10T07:15:12;100071.00;;;10.43;94.40
35806;BME280;21925;44.608;11.580;2022-12-10T07:17:38;99910.06;;;9.43;96.60
35806;BME280;21925;44.608;11.580;2022-12-10T07:20:05;100032.22;;;10.04;96.76
35806;BME280;21925;44.608;11.580;2022-12-10T07:22:31;100016.53;;;10.01;97.16
35806;BME280;21925;44.608;11.580;2022-12-10T07:24:57;100038.78;;;10.18;97.65
35806;BME280;21925;44.608;11.580;2022-12-10T07:27:23;100052.50;;;10.37;98.30
35806;BME280;21925;44.608;11.580;2022-12-10T07:29:48;100022.16;;;10.08;97.76
35806;BME280;21925;44.608;11.580;2022-12-10T07:32:14;100026.69;;;10.00;99.26
35806;BME280;21925;44.608;11.580;2022-12-10T07:34:40;99926.28;;;9.32;100.00
35806;BME280;21925;44.608;11.580;2022-12-10T07:37:06;99972.88;;;9.73;100.00
35806;BME280;21925;44.608;11.580;2022-12-10T07:39:32;99972.88;;;9.92;98.65
35806;BME280;21925;44.608;11.580;2022-12-10T07:41:58;99939.75;;;9.59;98.44
35806;BME280;21925;44.608;11.580;2022-12-10T07:44:25;100072.88;;;10.39;100.00
35806;BME280;21925;44.608;11.580;2022-12-10T07:46:53;100068.38;;;10.50;100.00
35806;BME280;21925;44.608;11.580;2022-12-10T07:49:19;100063.66;;;10.47;100.00
35806;BME280;21925;44.608;11.580;2022-12-10T07:51:46;100006.81;;;9.88;100.00
35806;BME280;21925;44.608;11.580;2022-12-10T07:54:13;100057.53;;;10.54;100.00
35806;BME280;21925;44.608;11.580;2022-12-10T07:56:39;100011.34;;;10.15;100.00
35806;BME280;21925;44.608;11.580;2022-12-10T07:59:05;99972.72;;;10.01;100.00
35806;BME280;21925;44.608;11.580;2022-12-10T08:01:32;99884.78;;;9.87;99.38
35806;BME280;21925;44.608;11.580;2022-12-10T08:03:58;99972.53;;;10.32;97.47
35806;BME280;21925;44.608;11.580;2022-12-10T08:06:26;100067.59;;;10.91;98.45
35806;BME280;21925;44.608;11.580;2022-12-10T08:08:53;99966.50;;;10.45;98.37
35806;BME280;21925;44.608;11.580;2022-12-10T08:11:21;99990.94;;;10.53;98.59
35806;BME280;21925;44.608;11.580;2022-12-10T08:13:48;100059.56;;;11.02;98.53
35806;BME280;21925;44.608;11.580;2022-12-10T08:16:20;99999.59;;;10.55;99.03
35806;BME280;21925;44.608;11.580;2022-12-10T08:18:48;99997.22;;;10.54;99.67
35806;BME280;21925;44.608;11.580;2022-12-10T08:21:17;100048.22;;;11.03;99.40
35806;BME280;21925;44.608;11.580;2022-12-10T08:23:44;99978.00;;;10.32;100.00
35806;BME280;21925;44.608;11.580;2022-12-10T08:26:16;99902.28;;;9.82;100.00
35806;BME280;21925;44.608;11.580;2022-12-10T08:28:42;99967.41;;;10.52;100.00
35806;BME280;21925;44.608;11.580;2022-12-10T08:31:10;100039.75;;;10.89;100.00
35806;BME280;21925;44.608;11.580;2022-12-10T08:33:37;100004.16;;;10.70;100.00
35806;BME280;21925;44.608;11.580;2022-12-10T08:36:04;99912.28;;;9.94;100.00
35806;BME280;21925;44.608;11.580;2022-12-10T08:38:34;100029.00;;;10.81;100.00
35806;BME280;21925;44.608;11.580;2022-12-10T08:41:19;99969.19;;;10.41;100.00
35806;BME280;21925;44.608;11.580;2022-12-10T08:43:45;99963.72;;;10.41;100.00
35806;BME280;21925;44.608;11.580;2022-12-10T08:46:12;100061.66;;;11.11;99.32
35806;BME280;21925;44.608;11.580;2022-12-10T08:48:40;100020.16;;;10.68;100.00
35806;BME280;21925;44.608;11.580;2022-12-10T08:51:08;100065.34;;;11.19;100.00
35806;BME280;21925;44.608;11.580;2022-12-10T08:53:34;100028.66;;;10.60;99.15
35806;BME280;21925;44.608;11.580;2022-12-10T08:56:01;100010.25;;;10.60;100.00
35806;BME280;21925;44.608;11.580;2022-12-10T08:58:27;99975.50;;;10.45;100.00
35806;BME280;21925;44.608;11.580;2022-12-10T09:00:52;100022.63;;;10.32;100.00
35806;BME280;21925;44.608;11.580;2022-12-10T09:03:21;99995.28;;;10.35;100.00
35806;BME280;21925;44.608;11.580;2022-12-10T09:05:46;99987.97;;;10.21;100.00
35806;BME280;21925;44.608;11.580;2022-12-10T09:08:13;100079.06;;;10.97;100.00
35806;BME280;21925;44.608;11.580;2022-12-10T09:10:42;100052.91;;;10.80;100.00
35806;BME280;21925;44.608;11.580;2022-12-10T09:13:08;100068.28;;;10.85;100.00
35806;BME280;21925;44.608;11.580;2022-12-10T09:15:34;100060.50;;;10.68;100.00
35806;BME280;21925;44.608;11.580;2022-12-10T09:18:00;100007.56;;;10.41;100.00
35806;BME280;21925;44.608;11.580;2022-12-10T09:20:28;100065.03;;;10.79;100.00
35806;BME280;21925;44.608;11.580;2022-12-10T09:22:54;99923.50;;;10.27;100.00
35806;BME280;21925;44.608;11.580;2022-12-10T09:25:20;99966.69;;;10.55;100.00
35806;BME280;21925;44.608;11.580;2022-12-10T09:27:47;100059.78;;;11.38;100.00
35806;BME280;21925;44.608;11.580;2022-12-10T09:30:13;99983.81;;;10.49;100.00
35806;BME280;21925;44.608;11.580;2022-12-10T09:32:39;99899.94;;;10.00;100.00
35806;BME280;21925;44.608;11.580;2022-12-10T09:35:07;99974.53;;;10.57;100.00
35806;BME280;21925;44.608;11.580;2022-12-10T09:37:33;99974.81;;;10.48;100.00
35806;BME280;21925;44.608;11.580;2022-12-10T09:39:59;99882.66;;;10.18;100.00
35806;BME280;21925;44.608;11.580;2022-12-10T09:45:36;99930.56;;;10.50;100.00
35806;BME280;21925;44.608;11.580;2022-12-10T09:51:02;99963.88;;;10.74;100.00
35806;BME280;21925;44.608;11.580;2022-12-10T09:53:32;99963.50;;;10.98;100.00
35806;BME280;21925;44.608;11.580;2022-12-10T09:55:58;100032.56;;;11.52;100.00
35806;BME280;21925;44.608;11.580;2022-12-10T09:58:26;100018.50;;;11.57;100.00
35806;BME280;21925;44.608;11.580;2022-12-10T10:00:58;99876.75;;;10.38;100.00
35806;BME280;21925;44.608;11.580;2022-12-10T10:03:25;99946.13;;;10.91;100.00
35806;BME280;21925;44.608;11.580;2022-12-10T10:05:54;99950.47;;;10.92;100.00
35806;BME280;21925;44.608;11.580;2022-12-10T10:08:37;99898.06;;;10.74;100.00
35806;BME280;21925;44.608;11.580;2022-12-10T10:11:05;99889.59;;;10.83;100.00
35806;BME280;21925;44.608;11.580;2022-12-10T10:13:36;99886.34;;;10.74;100.00
35806;BME280;21925;44.608;11.580;2022-12-10T10:16:42;99884.22;;;10.90;100.00
35806;BME280;21925;44.608;11.580;2022-12-10T10:19:13;99934.81;;;11.18;100.00
35806;BME280;21925;44.608;11.580;2022-12-10T10:21:46;99872.03;;;10.61;100.00
35806;BME280;21925;44.608;11.580;2022-12-10T10:24:18;99893.59;;;10.89;100.00
35806;BME280;21925;44.608;11.580;2022-12-10T10:26:48;99925.19;;;11.31;100.00
35806;BME280;21925;44.608;11.580;2022-12-10T10:29:20;99927.97;;;11.05;100.00
35806;BME280;21925;44.608;11.580;2022-12-10T10:31:47;99920.97;;;10.85;100.00
35806;BME280;21925;44.608;11.580;2022-12-10T10:34:17;99908.41;;;10.84;100.00
35806;BME280;21925;44.608;11.580;2022-12-10T10:36:45;99903.56;;;11.00;100.00
35806;BME280;21925;44.608;11.580;2022-12-10T10:41:49;99828.50;;;10.56;100.00
35806;BME280;21925;44.608;11.580;2022-12-10T10:44:20;99902.41;;;11.01;100.00
35806;BME280;21925;44.608;11.580;2022-12-10T10:46:48;99895.66;;;11.21;100.00
35806;BME280;21925;44.608;11.580;2022-12-10T10:49:25;99945.13;;;11.28;100.00
35806;BME280;21925;44.608;11.580;2022-12-10T10:51:53;99879.06;;;11.43;100.00
35806;BME280;21925;44.608;11.580;2022-12-10T10:54:41;99942.06;;;11.33;100.00
35806;BME280;21925;44.608;11.580;2022-12-10T10:57:27;99777.59;;;10.55;100.00
35806;BME280;21925;44.608;11.580;2022-12-10T11:00:10;99891.31;;;11.20;100.00
35806;BME280;21925;44.608;11.580;2022-12-10T11:02:43;99820.94;;;11.02;100.00
35806;BME280;21925;44.608;11.580;2022-12-10T11:05:26;99883.84;;;11.46;100.00
35806;BME280;21925;44.608;11.580;2022-12-10T11:08:17;99934.84;;;11.21;100.00
35806;BME280;21925;44.608;11.580;2022-12-10T11:10:55;99844.84;;;11.05;100.00
35806;BME280;21925;44.608;11.580;2022-12-10T11:13:27;99841.78;;;10.80;100.00
35806;BME280;21925;44.608;11.580;2022-12-10T11:16:01;99899.59;;;11.23;100.00
35806;BME280;21925;44.608;11.580;2022-12-10T11:18:33;99907.25;;;11.37;100.00
35806;BME280;21925;44.608;11.580;2022-12-10T11:23:41;99745.38;;;10.49;100.00
35806;BME280;21925;44.608;11.580;2022-12-10T11:37:38;99859.72;;;11.59;100.00
35806;BME280;21925;44.608;11.580;2022-12-10T11:40:30;99857.00;;;11.98;100.00
35806;BME280;21925;44.608;11.580;2022-12-10T11:46:07;99786.59;;;11.14;100.00
35806;BME280;21925;44.608;11.580;2022-12-10T11:51:59;99855.84;;;11.34;100.00
35806;BME280;21925;44.608;11.580;2022-12-10T12:00:20;99838.13;;;11.57;100.00
35806;BME280;21925;44.608;11.580;2022-12-10T12:11:26;99789.56;;;11.32;100.00
35806;BME280;21925;44.608;11.580;2022-12-10T12:14:12;99782.59;;;11.05;100.00
35806;BME280;21925;44.608;11.580;2022-12-10T12:17:02;99729.97;;;10.96;100.00
35806;BME280;21925;44.608;11.580;2022-12-10T12:19:36;99795.91;;;11.69;100.00
35806;BME280;21925;44.608;11.580;2022-12-10T12:22:11;99735.09;;;11.34;100.00
35806;BME280;21925;44.608;11.580;2022-12-10T12:24:42;99817.84;;;11.69;100.00
35806;BME280;21925;44.608;11.580;2022-12-10T12:27:43;99821.03;;;11.71;100.00
35806;BME280;21925;44.608;11.580;2022-12-10T12:30:18;99764.84;;;11.32;100.00
35806;BME280;21925;44.608;11.580;2022-12-10T12:38:23;99805.25;;;11.64;100.00
35806;BME280;21925;44.608;11.580;2022-12-10T12:41:05;99810.63;;;11.54;100.00
35806;BME280;21925;44.608;11.580;2022-12-10T12:43:42;99669.22;;;10.61;100.00
35806;BME280;21925;44.608;11.580;2022-12-10T12:46:18;99701.44;;;10.71;100.00
35806;BME280;21925;44.608;11.580;2022-12-10T12:49:00;99772.09;;;11.47;100.00
35806;BME280;21925;44.608;11.580;2022-12-10T12:51:40;99803.72;;;11.67;100.00
35806;BME280;21925;44.608;11.580;2022-12-10T12:54:10;99738.16;;;11.25;100.00
35806;BME280;21925;44.608;11.580;2022-12-10T12:59:58;99742.69;;;11.11;100.00
35806;BME280;21925;44.608;11.580;2022-12-10T13:05:24;99795.47;;;11.67;100.00
35806;BME280;21925;44.608;11.580;2022-12-10T13:10:57;99809.13;;;11.60;100.00
35806;BME280;21925;44.608;11.580;2022-12-10T13:15:53;99693.53;;;10.66;100.00
35806;BME280;21925;44.608;11.580;2022-12-10T13:18:35;99731.63;;;11.04;100.00
35806;BME280;21925;44.608;11.580;2022-12-10T13:23:54;99691.09;;;11.23;100.00
35806;BME280;21925;44.608;11.580;2022-12-10T13:26:31;99799.75;;;11.64;100.00
35806;BME280;21925;44.608;11.580;2022-12-10T13:29:24;99699.47;;;11.37;100.00
35806;BME280;21925;44.608;11.580;2022-12-10T13:32:13;99705.72;;;10.98;100.00
35806;BME280;21925;44.608;11.580;2022-12-10T13:34:40;99747.34;;;11.10;100.00
35806;BME280;21925;44.608;11.580;2022-12-10T13:37:28;99749.53;;;11.27;100.00
35806;BME280;21925;44.608;11.580;2022-12-10T13:42:35;99661.41;;;10.63;100.00
35806;BME280;21925;44.608;11.580;2022-12-10T13:47:53;99736.09;;;11.19;100.00
35806;BME280;21925;44.608;11.580;2022-12-10T14:02:04;99803.53;;;11.86;100.00
35806;BME280;21925;44.608;11.580;2022-12-10T14:07:14;99741.78;;;11.36;100.00
35806;BME280;21925;44.608;11.580;2022-12-10T14:09:49;99734.59;;;11.25;100.00
35806;BME280;21925;44.608;11.580;2022-12-10T14:12:25;99654.94;;;10.78;100.00
35806;BME280;21925;44.608;11.580;2022-12-10T14:15:04;99783.97;;;11.54;100.00
35806;BME280;21925;44.608;11.580;2022-12-10T14:17:34;99690.91;;;11.06;100.00
35806;BME280;21925;44.608;11.580;2022-12-10T14:20:02;99751.47;;;11.60;100.00
35806;BME280;21925;44.608;11.580;2022-12-10T14:22:45;99776.19;;;11.60;100.00
35806;BME280;21925;44.608;11.580;2022-12-10T14:25:16;99720.91;;;11.28;100.00
35806;BME280;21925;44.608;11.580;2022-12-10T14:27:46;99688.56;;;11.08;100.00
35806;BME280;21925;44.608;11.580;2022-12-10T14:30:30;99776.28;;;11.37;100.00
35806;BME280;21925;44.608;11.580;2022-12-10T14:32:59;99783.88;;;11.47;100.00
35806;BME280;21925;44.608;11.580;2022-12-10T14:35:26;99787.31;;;11.41;100.00
35806;BME280;21925;44.608;11.580;2022-12-10T14:37:56;99821.97;;;11.52;100.00
35806;BME280;21925;44.608;11.580;2022-12-10T14:40:23;99828.81;;;11.65;100.00
35806;BME280;21925;44.608;11.580;2022-12-10T14:43:02;99765.56;;;11.22;100.00
35806;BME280;21925;44.608;11.580;2022-12-10T14:45:59;99758.63;;;11.02;100.00
35806;BME280;21925;44.608;11.580;2022-12-10T14:48:24;99736.47;;;11.14;100.00